Time;durP1;ratioP1;P1;durP2;ratioP2;P2;SDS_P1;SDS_P2;PMS_P1;PMS_P2;Temp;Humidity;BMP_temperature;BMP_pressure;BME280_temperature;BME280_humidity;BME280_pressure;Samples;Min_cycle;Max_cycle;Signal;HPM_P1;HPM_P2
2021/01/02 00:00:17;;;;;;;64.35;29.60;;;;;;;0.81;100.00;95378.31;1034252;28;20026;-73
2021/01/02 00:00:48;;;;;;;56.08;27.85;;;;;;;0.75;100.00;95381.47;1029926;28;20023;-73
2021/01/02 00:01:19;;;;;;;59.95;29.20;;;;;;;0.77;100.00;95383.94;1034083;28;20024;-73
2021/01/02 00:02:09;;;;;;;58.00;29.05;;;;;;;0.70;100.00;95365.34;1030065;28;20019;-73
2021/01/02 00:02:49;;;;;;;;;;;;;;;0.79;100.00;95382.03;1038066;28;20052;-73
2021/01/02 00:03:26;;;;;;;54.17;26.65;;;;;;;0.77;100.00;95389.16;1029577;28;20025;-73
2021/01/02 00:04:10;;;;;;;59.35;27.52;;;;;;;0.86;100.00;95389.22;1029651;28;20058;-73
2021/01/02 00:04:50;;;;;;;61.00;28.52;;;;;;;0.87;100.00;95390.03;1034305;28;20046;-73
2021/01/02 00:05:22;;;;;;;64.78;27.85;;;;;;;0.77;100.00;95384.78;1034102;28;20065;-73
2021/01/02 00:06:03;;;;;;;54.90;26.92;;;;;;;0.75;100.00;95389.31;1029851;28;20054;-73
2021/01/02 00:06:47;;;;;;;63.33;27.27;;;;;;;0.78;100.00;95385.59;1029871;28;20475;-73
2021/01/02 00:07:34;;;;;;;57.72;28.15;;;;;;;0.69;100.00;95389.81;1029738;28;20507;-73
2021/01/02 00:08:11;;;;;;;60.58;27.63;;;;;;;0.76;100.00;95390.94;1023977;29;20031;-73
2021/01/02 00:08:42;;;;;;;61.10;28.52;;;;;;;0.54;100.00;95344.91;1028128;28;20057;-73
2021/01/02 00:09:15;;;;;;;60.92;27.40;;;;;;;0.81;100.00;95383.56;1023977;29;20496;-73
2021/01/02 00:09:46;;;;;;;60.28;28.17;;;;;;;0.73;100.00;95388.59;1027929;28;20019;-73
2021/01/02 00:10:19;;;;;;;57.35;27.08;;;;;;;0.71;100.00;95386.09;1027820;28;20080;-73
2021/01/02 00:11:03;;;;;;;55.70;27.75;;;;;;;0.71;100.00;95386.09;1029665;28;20117;-73
2021/01/02 00:11:43;;;;;;;60.10;27.48;;;;;;;0.65;100.00;95391.03;1031767;28;20407;-73
2021/01/02 00:12:38;;;;;;;56.97;28.13;;;;;;;0.62;100.00;95381.66;1031108;28;20022;-74
2021/01/02 00:13:25;;;;;;;60.92;27.08;;;;;;;0.68;100.00;95390.75;1027825;28;20166;-73
2021/01/02 00:14:08;;;;;;;56.38;26.92;;;;;;;0.61;100.00;95387.84;1025268;28;20028;-74
2021/01/02 00:14:58;;;;;;;59.00;28.80;;;;;;;0.78;100.00;95393.44;1027698;28;20019;-73
2021/01/02 00:15:50;;;;;;;61.60;28.52;;;;;;;0.65;100.00;95389.25;1031773;28;20464;-73
2021/01/02 00:16:40;;;;;;;56.50;27.23;;;;;;;0.63;100.00;95399.00;1031770;28;20080;-73
2021/01/02 00:17:21;;;;;;;63.67;27.58;;;;;;;0.65;100.00;95389.25;1027980;28;20027;-74
2021/01/02 00:18:08;;;;;;;62.85;26.45;;;;;;;0.71;100.00;95393.94;1023914;28;20023;-73
2021/01/02 00:18:55;;;;;;;61.58;27.20;;;;;;;0.69;100.00;95397.66;1028814;28;20415;-73
2021/01/02 00:19:45;;;;;;;56.45;26.30;;;;;;;0.62;100.00;95386.88;1023763;29;20020;-73
2021/01/02 00:20:26;;;;;;;58.05;28.02;;;;;;;0.66;100.00;95392.69;1023809;29;20516;-73
2021/01/02 00:21:02;;;;;;;57.78;27.13;;;;;;;0.56;100.00;95388.22;1027684;28;20472;-74
2021/01/02 00:21:52;;;;;;;64.90;28.63;;;;;;;0.65;100.00;95397.09;1035762;28;20029;-73
2021/01/02 00:22:35;;;;;;;57.00;27.10;;;;;;;0.64;100.00;95395.41;1031867;28;20101;-74
2021/01/02 00:23:05;;;;;;;61.60;27.63;;;;;;;0.64;100.00;95397.22;1023777;29;20019;-73
2021/01/02 00:23:53;;;;;;;59.72;29.33;;;;;;;0.62;100.00;95397.34;1023745;29;20030;-74
2021/01/02 00:24:43;;;;;;;63.15;28.58;;;;;;;0.51;100.00;95385.19;1023517;29;20027;-73
2021/01/02 00:25:15;;;;;;;57.53;27.33;;;;;;;0.62;100.00;95401.75;1031796;28;20470;-74
2021/01/02 00:25:46;;;;;;;64.85;28.90;;;;;;;0.57;100.00;95399.50;1027626;28;20502;-73
2021/01/02 00:26:36;;;;;;;59.40;29.15;;;;;;;0.55;100.00;95404.03;1039772;28;20028;-73
2021/01/02 00:27:09;;;;;;;63.78;29.00;;;;;;;0.54;100.00;95395.38;1023752;29;20118;-73
2021/01/02 00:27:50;;;;;;;69.43;30.45;;;;;;;0.56;100.00;95396.06;1019788;29;20035;-73
2021/01/02 00:28:22;;;;;;;58.15;27.90;;;;;;;0.53;100.00;95378.03;1023758;29;20147;-73
2021/01/02 00:28:52;;;;;;;63.80;28.00;;;;;;;0.65;100.00;95396.25;1027697;28;20360;-73
2021/01/02 00:29:24;;;;;;;58.53;28.20;;;;;;;0.67;100.00;95394.34;1031760;28;20077;-74
2021/01/02 00:30:04;;;;;;;60.10;29.45;;;;;;;0.54;100.00;95389.31;1027817;28;20023;-73
2021/01/02 00:30:49;;;;;;;63.88;29.30;;;;;;;0.34;100.00;95357.84;1027799;28;20023;-73
2021/01/02 00:31:26;;;;;;;63.88;27.67;;;;;;;0.54;100.00;95390.16;1031864;28;20423;-73
2021/01/02 00:32:15;;;;;;;60.75;27.80;;;;;;;0.65;100.00;95398.88;1023711;29;20020;-73
2021/01/02 00:32:49;;;;;;;60.53;29.20;;;;;;;0.61;100.00;95395.69;1027663;28;20037;-73
2021/01/02 00:33:28;;;;;;;57.25;27.83;;;;;;;0.47;100.00;95369.88;1027693;28;20034;-73
2021/01/02 00:34:20;;;;;;;52.40;26.52;;;;;;;0.60;100.00;95399.25;1027776;28;20551;-73
2021/01/02 00:34:51;;;;;;;56.03;26.58;;;;;;;0.60;100.00;95398.44;1027685;28;20034;-73
2021/01/02 00:35:22;;;;;;;58.97;28.00;;;;;;;0.62;100.00;95394.72;1027964;28;20023;-73
2021/01/02 00:35:53;;;;;;;55.13;27.05;;;;;;;0.47;100.00;95375.94;1023736;29;20023;-73
2021/01/02 00:36:32;;;;;;;57.47;28.05;;;;;;;0.49;100.00;95387.09;1027860;28;20019;-73
2021/01/02 00:37:09;;;;;;;59.45;27.67;;;;;;;0.57;100.00;95394.28;1023821;29;20572;-73
2021/01/02 00:37:41;;;;;;;57.42;27.92;;;;;;;0.35;100.00;95353.47;1023708;29;20027;-73
2021/01/02 00:38:13;;;;;;;60.55;27.63;;;;;;;0.65;100.00;95393.66;1027729;28;20031;-74
2021/01/02 00:38:44;;;;;;;54.80;28.27;;;;;;;0.60;100.00;95393.22;1027625;28;20023;-73
2021/01/02 00:39:21;;;;;;;58.13;28.73;;;;;;;0.59;100.00;95391.53;1035711;28;20026;-73
2021/01/02 00:40:08;;;;;;;65.10;29.70;;;;;;;0.67;100.00;95391.72;1027817;28;20033;-73
2021/01/02 00:40:38;;;;;;;67.85;29.48;;;;;;;0.64;100.00;95389.38;1019783;29;20477;-73
2021/01/02 00:41:09;;;;;;;57.72;27.60;;;;;;;0.65;100.00;95388.44;1023614;29;20023;-73
2021/01/02 00:41:40;;;;;;;61.97;28.55;;;;;;;0.60;100.00;95387.97;1031818;28;20098;-73
2021/01/02 00:42:12;;;;;;;59.33;28.67;;;;;;;0.56;100.00;95388.22;1023650;29;20511;-73
2021/01/02 00:42:45;;;;;;;57.83;28.77;;;;;;;0.47;100.00;95378.56;1023830;29;20522;-74
2021/01/02 00:43:16;;;;;;;58.10;28.00;;;;;;;0.53;100.00;95393.72;1023534;29;20070;-74
2021/01/02 00:43:46;;;;;;;62.17;29.73;;;;;;;0.59;100.00;95392.34;1031745;28;20024;-73
2021/01/02 00:44:27;;;;;;;65.82;28.60;;;;;;;0.60;100.00;95396.63;1027593;28;20424;-73
2021/01/02 00:44:59;;;;;;;60.72;28.13;;;;;;;0.53;100.00;95383.25;1031664;28;20502;-73
2021/01/02 00:45:30;;;;;;;63.60;29.27;;;;;;;0.42;100.00;95377.28;1023673;29;20105;-73
2021/01/02 00:46:01;;;;;;;61.03;28.92;;;;;;;0.55;100.00;95390.97;1027725;28;20042;-73
2021/01/02 00:46:32;;;;;;;65.63;29.92;;;;;;;0.48;100.00;95385.44;1023690;29;20110;-74
2021/01/02 00:47:03;;;;;;;61.67;28.65;;;;;;;0.51;100.00;95395.63;1023702;28;20035;-74
2021/01/02 00:47:36;;;;;;;65.20;30.92;;;;;;;0.50;100.00;95398.38;1027641;28;20031;-73
2021/01/02 00:48:07;;;;;;;60.40;29.05;;;;;;;0.53;100.00;95398.13;1023724;29;20042;-73
2021/01/02 00:48:38;;;;;;;63.80;28.92;;;;;;;0.54;100.00;95395.38;1023825;29;20552;-73
2021/01/02 00:49:09;;;;;;;61.75;30.25;;;;;;;0.46;100.00;95389.97;1031543;28;20041;-73
2021/01/02 00:49:42;;;;;;;53.33;26.65;;;;;;;0.51;100.00;95400.03;1031698;28;20161;-73
2021/01/02 00:50:13;;;;;;;69.43;29.60;;;;;;;0.54;100.00;95400.59;1023657;29;20079;-73
2021/01/02 00:50:44;;;;;;;63.95;29.80;;;;;;;0.54;100.00;95394.53;1027746;28;20058;-74
2021/01/02 00:51:15;;;;;;;63.65;29.60;;;;;;;0.49;100.00;95402.78;1024295;28;20455;-73
2021/01/02 00:51:48;;;;;;;66.70;30.38;;;;;;;0.50;100.00;95403.59;1027538;28;20023;-73
2021/01/02 00:52:30;;;;;;;58.55;28.58;;;;;;;0.58;100.00;95402.97;1027764;28;20054;-73
2021/01/02 00:53:16;;;;;;;66.00;29.38;;;;;;;0.58;100.00;95401.16;1032272;28;20101;-73
2021/01/02 00:53:50;;;;;;;60.10;28.20;;;;;;;0.63;100.00;95403.38;1028337;28;20022;-73
2021/01/02 00:54:33;;;;;;;60.75;28.30;;;;;;;0.63;100.00;95406.84;1024598;29;20559;-74
2021/01/02 00:55:16;;;;;;;61.00;29.25;;;;;;;0.67;100.00;95403.00;1032508;28;20026;-73
2021/01/02 00:56:06;;;;;;;62.80;28.60;;;;;;;0.68;100.00;95409.91;1028343;28;20101;-73
2021/01/02 00:56:45;;;;;;;60.67;28.42;;;;;;;0.67;100.00;95400.41;1028621;28;20476;-73
2021/01/02 00:57:27;;;;;;;64.05;27.73;;;;;;;0.52;100.00;95392.06;1028578;28;20026;-73
2021/01/02 00:58:22;;;;;;;62.05;30.17;;;;;;;0.64;100.00;95400.66;1028348;28;20035;-73
2021/01/02 00:59:03;;;;;;;67.05;27.73;;;;;;;0.61;100.00;95403.53;1029374;28;20023;-73
2021/01/02 00:59:50;;;;;;;70.55;29.23;;;;;;;0.60;100.00;95403.66;1032387;28;20091;-73
2021/01/02 01:00:21;;;;;;;66.28;29.17;;;;;;;0.49;100.00;95397.53;1032500;28;20023;-73
2021/01/02 01:01:04;;;;;;;67.18;29.75;;;;;;;0.49;100.00;95397.53;1028461;28;20022;-73
2021/01/02 01:01:40;;;;;;;70.55;31.40;;;;;;;0.48;100.00;95392.44;1024365;29;20039;-74
2021/01/02 01:02:20;;;;;;;69.85;31.85;;;;;;;0.48;100.00;95393.25;1032335;28;20030;-74
2021/01/02 01:03:01;;;;;;;67.57;30.73;;;;;;;0.39;100.00;95380.16;1040441;28;20052;-73
2021/01/02 01:03:51;;;;;;;64.85;29.33;;;;;;;0.42;100.00;95390.31;1032363;28;20053;-73
2021/01/02 01:04:41;;;;;;;65.30;29.33;;;;;;;0.45;100.00;95400.53;1028472;28;20018;-73
2021/01/02 01:05:19;;;;;;;64.45;28.75;;;;;;;0.43;100.00;95392.81;1031276;28;20488;-73
2021/01/02 01:05:50;;;;;;;66.45;30.15;;;;;;;0.45;100.00;95405.75;1032347;28;20126;-74
2021/01/02 01:06:21;;;;;;;73.25;31.17;;;;;;;0.46;100.00;95397.78;1032458;28;20030;-73
2021/01/02 01:06:54;;;;;;;73.85;31.75;;;;;;;0.52;100.00;95401.66;1036494;28;20026;-73
2021/01/02 01:07:25;;;;;;;68.30;31.40;;;;;;;0.58;100.00;95410.81;1032521;28;20029;-73
2021/01/02 01:07:56;;;;;;;70.63;32.17;;;;;;;0.50;100.00;95398.38;1032458;28;20050;-73
2021/01/02 01:08:41;;;;;;;71.03;31.63;;;;;;;0.56;100.00;95409.13;1024444;29;20023;-73
2021/01/02 01:09:13;;;;;;;71.07;30.20;;;;;;;0.60;100.00;95404.47;1032662;28;20098;-73
2021/01/02 01:09:48;;;;;;;71.65;32.20;;;;;;;0.63;100.00;95400.75;1028462;28;20533;-73
2021/01/02 01:10:21;;;;;;;67.38;30.13;;;;;;;0.60;100.00;95401.88;1028389;28;20065;-74
2021/01/02 01:10:52;;;;;;;66.82;31.10;;;;;;;0.59;100.00;95405.41;1028413;28;20030;-73
2021/01/02 01:11:23;;;;;;;68.20;30.48;;;;;;;0.51;100.00;95402.66;1024643;29;20102;-74
2021/01/02 01:11:54;;;;;;;73.47;31.45;;;;;;;0.34;100.00;95388.38;1032346;28;20376;-73
2021/01/02 01:12:27;;;;;;;78.70;33.58;;;;;;;0.40;100.00;95405.31;1036383;28;20022;-73
2021/01/02 01:13:00;;;;;;;74.18;32.70;;;;;;;0.44;100.00;95401.50;1036523;28;20018;-73
2021/01/02 01:13:31;;;;;;;78.63;33.17;;;;;;;0.43;100.00;95408.47;1028336;28;20069;-73
2021/01/02 01:14:03;;;;;;;72.38;32.33;;;;;;;0.41;100.00;95407.78;1028421;28;20062;-73
2021/01/02 01:14:33;;;;;;;75.45;32.75;;;;;;;0.47;100.00;95409.06;1028368;28;20025;-73
2021/01/02 01:15:05;;;;;;;73.88;32.47;;;;;;;0.52;100.00;95406.91;1028402;28;20086;-73
2021/01/02 01:15:36;;;;;;;71.30;32.47;;;;;;;0.49;100.00;95412.41;1024452;29;20130;-73
2021/01/02 01:16:07;;;;;;;80.20;33.47;;;;;;;0.45;100.00;95408.38;1028364;28;20031;-73
2021/01/02 01:16:42;;;;;;;70.75;32.33;;;;;;;0.47;100.00;95407.28;1028366;28;20019;-73
2021/01/02 01:17:19;;;;;;;80.30;32.55;;;;;;;0.46;100.00;95410.03;1028610;28;20029;-73
2021/01/02 01:18:01;;;;;;;72.78;33.17;;;;;;;0.49;100.00;95404.56;1028392;28;20038;-73
2021/01/02 01:18:43;;;;;;;70.80;31.42;;;;;;;0.51;100.00;95413.09;1032331;28;20101;-73
2021/01/02 01:19:16;;;;;;;69.30;31.00;;;;;;;0.39;100.00;95403.66;1028503;28;20493;-73
2021/01/02 01:19:51;;;;;;;75.35;33.15;;;;;;;0.41;100.00;95414.81;1028382;28;20102;-73
2021/01/02 01:20:22;;;;;;;68.60;31.73;;;;;;;0.42;100.00;95419.91;1028321;28;20045;-73
2021/01/02 01:20:56;;;;;;;74.15;30.90;;;;;;;0.42;100.00;95414.69;1032363;28;20029;-74
2021/01/02 01:21:29;;;;;;;73.32;30.15;;;;;;;0.41;100.00;95415.63;1024425;29;20071;-73
2021/01/02 01:22:00;;;;;;;72.60;31.80;;;;;;;0.40;100.00;95414.00;1024394;29;20035;-73
2021/01/02 01:22:31;;;;;;;69.07;31.75;;;;;;;0.36;100.00;95404.72;1032436;28;20474;-73
2021/01/02 01:23:18;;;;;;;64.20;30.63;;;;;;;0.41;100.00;95418.25;1024367;29;20055;-74
2021/01/02 01:23:58;;;;;;;68.57;28.90;;;;;;;0.35;100.00;95408.31;1028541;28;20150;-73
2021/01/02 01:24:42;;;;;;;69.72;31.63;;;;;;;0.15;100.00;95379.44;1028338;28;20037;-73
2021/01/02 01:25:31;;;;;;;61.08;29.10;;;;;;;0.42;100.00;95411.22;1020340;29;20168;-73
2021/01/02 01:26:12;;;;;;;63.33;28.60;;;;;;;0.50;100.00;95414.84;1024393;29;20106;-74
2021/01/02 01:26:55;;;;;;;62.92;28.08;;;;;;;0.45;100.00;95405.75;1024409;29;20030;-73
2021/01/02 01:27:42;;;;;;;68.78;28.48;;;;;;;0.44;100.00;95404.13;1028394;28;20014;-73
2021/01/02 01:28:13;;;;;;;66.80;29.83;;;;;;;0.50;100.00;95409.63;1024409;29;20023;-73
2021/01/02 01:28:45;;;;;;;69.88;30.83;;;;;;;0.50;100.00;95412.25;1028357;28;20053;-74
2021/01/02 01:29:35;;;;;;;67.97;31.35;;;;;;;0.51;100.00;95413.91;1024388;29;20023;-74
2021/01/02 01:30:07;;;;;;;69.15;28.75;;;;;;;0.47;100.00;95412.53;1028347;28;20536;-73
2021/01/02 01:30:39;;;;;;;71.63;31.92;;;;;;;0.50;100.00;95414.03;1024481;29;20027;-73
2021/01/02 01:31:10;;;;;;;67.57;30.70;;;;;;;0.53;100.00;95411.19;1024285;29;20070;-73
2021/01/02 01:31:48;;;;;;;78.40;32.88;;;;;;;0.53;100.00;95422.44;1032303;28;20080;-73
2021/01/02 01:32:20;;;;;;;65.43;29.67;;;;;;;0.39;100.00;95401.88;1024383;29;20066;-73
2021/01/02 01:33:00;;;;;;;68.75;30.25;;;;;;;0.43;100.00;95418.94;1028270;28;20030;-73
2021/01/02 01:33:31;;;;;;;69.45;30.27;;;;;;;0.43;100.00;95416.31;1032292;28;20475;-73
2021/01/02 01:34:02;;;;;;;76.15;32.05;;;;;;;0.44;100.00;95415.38;1024313;29;20027;-73
2021/01/02 01:34:33;;;;;;;74.35;32.10;;;;;;;0.48;100.00;95415.94;1028411;28;20027;-73
2021/01/02 01:35:04;;;;;;;67.32;30.27;;;;;;;0.49;100.00;95409.78;1028292;28;20037;-73
2021/01/02 01:35:37;;;;;;;67.13;30.90;;;;;;;0.54;100.00;95413.66;1028345;28;20047;-74
2021/01/02 01:36:07;;;;;;;64.18;31.50;;;;;;;0.46;100.00;95408.25;1036310;28;20076;-73
2021/01/02 01:36:42;;;;;;;71.10;31.67;;;;;;;0.48;100.00;95410.72;1032404;28;20026;-73
2021/01/02 01:37:16;;;;;;;66.07;30.42;;;;;;;0.53;100.00;95419.84;1032128;28;20113;-73
2021/01/02 01:37:47;;;;;;;63.88;30.08;;;;;;;0.45;100.00;95406.56;1024414;29;20080;-73
2021/01/02 01:38:18;;;;;;;63.63;29.13;;;;;;;0.54;100.00;95418.88;1028251;28;20133;-73
2021/01/02 01:38:53;;;;;;;60.55;29.40;;;;;;;0.56;100.00;95424.81;1028469;28;20050;-74
2021/01/02 01:39:23;;;;;;;65.70;29.92;;;;;;;0.58;100.00;95416.03;1024254;29;20023;-74
2021/01/02 01:39:54;;;;;;;65.55;29.52;;;;;;;0.43;100.00;95408.47;1028365;28;20601;-73
2021/01/02 01:40:26;;;;;;;75.15;32.50;;;;;;;0.44;100.00;95415.38;1024377;29;20027;-73
2021/01/02 01:41:12;;;;;;;65.60;30.15;;;;;;;0.49;100.00;95422.84;1032371;28;20336;-73
2021/01/02 01:41:43;;;;;;;75.03;30.08;;;;;;;0.40;100.00;95413.13;1028284;28;20487;-73
2021/01/02 01:42:14;;;;;;;69.70;30.25;;;;;;;0.40;100.00;95418.38;1024396;29;20023;-73
2021/01/02 01:42:45;;;;;;;65.45;29.58;;;;;;;0.36;100.00;95412.56;1032411;28;20030;-74
2021/01/02 01:43:26;;;;;;;67.78;30.88;;;;;;;0.45;100.00;95413.59;1024247;29;20113;-73
2021/01/02 01:44:09;;;;;;;72.78;30.65;;;;;;;0.33;100.00;95411.06;1028315;28;20021;-73
2021/01/02 01:44:57;;;;;;;64.60;28.65;;;;;;;0.33;100.00;95412.81;1032362;28;20046;-74
2021/01/02 01:45:37;;;;;;;61.97;28.55;;;;;;;0.34;100.00;95414.47;1024187;29;20027;-73
2021/01/02 01:46:16;;;;;;;65.85;30.58;;;;;;;0.37;100.00;95416.84;1028457;28;20019;-73
2021/01/02 01:46:54;;;;;;;63.22;28.67;;;;;;;0.43;100.00;95420.72;1028497;28;20019;-74
2021/01/02 01:47:35;;;;;;;65.30;28.10;;;;;;;0.42;100.00;95425.13;1028249;28;20030;-74
2021/01/02 01:48:23;;;;;;;67.50;29.58;;;;;;;0.39;100.00;95416.72;1024297;29;20380;-73
2021/01/02 01:49:03;;;;;;;65.47;30.60;;;;;;;0.38;100.00;95415.88;1024476;29;20022;-73
2021/01/02 01:49:56;;;;;;;69.47;29.10;;;;;;;0.28;100.00;95402.75;1024413;29;20019;-73
2021/01/02 01:50:51;;;;;;;65.43;29.52;;;;;;;0.42;100.00;95422.53;1036281;28;20538;-73
2021/01/02 01:51:29;;;;;;;66.32;28.75;;;;;;;0.45;100.00;95419.63;1028399;28;20030;-73
2021/01/02 01:52:03;;;;;;;67.53;28.33;;;;;;;0.44;100.00;95423.22;1032140;28;20031;-74
2021/01/02 01:52:51;;;;;;;63.53;27.83;;;;;;;0.44;100.00;95420.59;1032199;28;20022;-73
2021/01/02 01:53:30;;;;;;;63.92;28.52;;;;;;;0.45;100.00;95417.00;1028245;28;20054;-74
2021/01/02 01:54:21;;;;;;;65.35;27.15;;;;;;;0.26;100.00;95391.63;1024327;29;20023;-74
2021/01/02 01:54:53;;;;;;;69.70;28.50;;;;;;;0.45;100.00;95419.63;1024325;29;20027;-74
2021/01/02 01:55:29;;;;;;;67.93;29.63;;;;;;;0.43;100.00;95412.88;1032625;28;20018;-74
2021/01/02 01:56:04;;;;;;;68.22;30.75;;;;;;;0.42;100.00;95417.28;1032166;28;20024;-73
2021/01/02 01:56:38;;;;;;;65.18;30.80;;;;;;;0.34;100.00;95412.69;1032352;28;20070;-74
2021/01/02 01:57:08;;;;;;;73.68;31.02;;;;;;;0.42;100.00;95406.84;1024383;29;20027;-74
2021/01/02 01:57:40;;;;;;;75.25;31.98;;;;;;;0.41;100.00;95406.97;1024315;29;20023;-73
2021/01/02 01:58:12;;;;;;;70.40;30.98;;;;;;;0.54;100.00;95426.72;1024403;29;20023;-73
2021/01/02 01:58:48;;;;;;;70.32;30.38;;;;;;;0.48;100.00;95414.16;1032278;28;20102;-73
2021/01/02 01:59:21;;;;;;;74.20;30.90;;;;;;;0.59;100.00;95433.34;1032359;28;20030;-73
2021/01/02 01:59:59;;;;;;;71.57;31.25;;;;;;;0.59;100.00;95412.44;1024208;29;20027;-73
2021/01/02 02:00:30;;;;;;;67.63;30.40;;;;;;;0.62;100.00;95425.25;1028369;28;20073;-74
2021/01/02 02:01:01;;;;;;;67.40;28.90;;;;;;;0.64;100.00;95418.13;1032250;28;20029;-74
2021/01/02 02:01:36;;;;;;;69.13;31.35;;;;;;;0.63;100.00;95416.44;1032400;28;20462;-74
2021/01/02 02:02:13;;;;;;;69.45;30.00;;;;;;;0.53;100.00;95425.06;1028315;28;20046;-73
2021/01/02 02:02:46;;;;;;;70.75;30.95;;;;;;;0.60;100.00;95419.34;1028134;28;20459;-73
2021/01/02 02:03:24;;;;;;;74.35;30.83;;;;;;;0.62;100.00;95426.06;1024275;29;20031;-73
2021/01/02 02:04:12;;;;;;;60.78;30.88;;;;;;;0.56;100.00;95424.00;1023929;29;20019;-74
2021/01/02 02:05:01;;;;;;;61.55;27.85;;;;;;;0.31;100.00;95386.81;1028182;28;20041;-74
2021/01/02 02:05:33;;;;;;;59.33;25.77;;;;;;;0.59;100.00;95434.16;1028252;28;20031;-73
2021/01/02 02:06:23;;;;;;;54.70;26.55;;;;;;;0.53;100.00;95432.91;1028156;28;20018;-73
2021/01/02 02:07:01;;;;;;;63.22;27.85;;;;;;;0.46;100.00;95420.47;1028366;28;20030;-73
2021/01/02 02:07:50;;;;;;;53.03;24.63;;;;;;;0.49;100.00;95425.47;1032223;28;20093;-73
2021/01/02 02:08:39;;;;;;;57.47;26.27;;;;;;;0.41;100.00;95426.06;1028138;28;20494;-73
2021/01/02 02:09:18;;;;;;;56.78;25.60;;;;;;;0.31;100.00;95435.63;1028298;28;20303;-74
2021/01/02 02:09:59;;;;;;;56.08;25.08;;;;;;;0.31;100.00;95428.59;1028192;28;20031;-74
2021/01/02 02:10:31;;;;;;;58.17;27.45;;;;;;;0.28;100.00;95420.19;1028167;28;20082;-74
2021/01/02 02:11:04;;;;;;;58.65;27.00;;;;;;;0.30;100.00;95429.56;1032282;28;20030;-73
2021/01/02 02:11:35;;;;;;;62.33;28.23;;;;;;;0.32;100.00;95429.44;1032408;28;20482;-73
2021/01/02 02:12:14;;;;;;;60.80;28.45;;;;;;;0.40;100.00;95434.03;1028879;28;20027;-73
2021/01/02 02:12:50;;;;;;;58.83;27.08;;;;;;;0.32;100.00;95432.06;1036543;28;20522;-73
2021/01/02 02:13:32;;;;;;;59.20;27.58;;;;;;;0.30;100.00;95420.91;1032400;28;20522;-73
2021/01/02 02:14:15;;;;;;;57.58;26.63;;;;;;;0.33;100.00;95434.56;1028183;28;20085;-73
2021/01/02 02:14:57;;;;;;;60.33;26.80;;;;;;;0.28;100.00;95430.63;1024023;29;20023;-73
2021/01/02 02:15:28;;;;;;;63.10;28.20;;;;;;;0.28;100.00;95428.03;1024237;29;20027;-73
2021/01/02 02:16:00;;;;;;;65.03;27.15;;;;;;;0.30;100.00;95432.19;1024201;29;20582;-74
2021/01/02 02:16:40;;;;;;;58.95;26.80;;;;;;;0.20;100.00;95413.00;1024239;29;20015;-73
2021/01/02 02:17:10;;;;;;;56.45;26.83;;;;;;;0.26;100.00;95429.94;1028230;28;20093;-74
2021/01/02 02:17:43;;;;;;;62.83;28.80;;;;;;;0.31;100.00;95428.59;1024387;29;20468;-73
2021/01/02 02:18:22;;;;;;;55.00;26.25;;;;;;;0.35;100.00;95431.81;1020246;29;20023;-73
2021/01/02 02:18:56;;;;;;;62.78;26.77;;;;;;;0.32;100.00;95426.84;1024044;29;20046;-73
2021/01/02 02:19:38;;;;;;;57.85;27.70;;;;;;;0.36;100.00;95428.22;1028175;28;20019;-73
2021/01/02 02:20:12;;;;;;;63.50;27.55;;;;;;;0.39;100.00;95427.16;1028136;28;20361;-73
2021/01/02 02:20:46;;;;;;;58.88;27.45;;;;;;;0.40;100.00;95418.38;1024146;29;20460;-73
2021/01/02 02:21:17;;;;;;;59.10;26.98;;;;;;;0.41;100.00;95426.06;1028125;28;20030;-73
2021/01/02 02:21:48;;;;;;;65.85;26.52;;;;;;;0.40;100.00;95424.44;1032252;28;20022;-73
2021/01/02 02:22:18;;;;;;;61.90;28.33;;;;;;;0.45;100.00;95435.31;1028174;28;20011;-74
2021/01/02 02:23:00;;;;;;;59.90;27.40;;;;;;;0.40;100.00;95429.66;1036196;28;20018;-73
2021/01/02 02:23:35;;;;;;;58.85;26.30;;;;;;;0.40;100.00;95432.28;1028263;28;20089;-74
2021/01/02 02:24:06;;;;;;;59.38;27.15;;;;;;;0.42;100.00;95426.91;1020210;29;20027;-73
2021/01/02 02:24:36;;;;;;;57.17;27.08;;;;;;;0.36;100.00;95425.63;1024185;29;20047;-73
2021/01/02 02:25:11;;;;;;;60.47;27.98;;;;;;;0.30;100.00;95423.53;1028040;28;20073;-73
2021/01/02 02:25:56;;;;;;;64.30;27.75;;;;;;;0.28;100.00;95418.44;1020285;29;20012;-74
2021/01/02 02:26:36;;;;;;;57.08;25.90;;;;;;;0.25;100.00;95416.06;1028136;28;20011;-73
2021/01/02 02:27:07;;;;;;;;;;;;;;;0.34;100.00;95423.13;1032502;28;20023;-73
2021/01/02 02:27:40;;;;;;;57.50;25.83;;;;;;;0.36;100.00;95423.00;1032177;28;19910;-73
2021/01/02 02:28:17;;;;;;;56.30;26.10;;;;;;;0.29;100.00;95422.69;1032175;28;20198;-73
2021/01/02 02:29:07;;;;;;;59.63;27.80;;;;;;;0.31;100.00;95425.16;1028084;28;20018;-73
2021/01/02 02:29:38;;;;;;;60.42;26.65;;;;;;;0.37;100.00;95425.50;1024108;29;20019;-73
2021/01/02 02:30:12;;;;;;;55.97;26.88;;;;;;;0.40;100.00;95421.81;1032066;28;20022;-73
2021/01/02 02:30:42;;;;;;;62.60;27.80;;;;;;;0.38;100.00;95426.31;1028249;28;20022;-73
2021/01/02 02:31:14;;;;;;;59.95;28.35;;;;;;;0.34;100.00;95424.94;1024083;29;20018;-74
2021/01/02 02:31:46;;;;;;;60.85;28.70;;;;;;;0.31;100.00;95426.00;1032154;28;20023;-73
2021/01/02 02:32:17;;;;;;;59.17;27.80;;;;;;;0.31;100.00;95419.94;1028066;28;20015;-73
2021/01/02 02:32:48;;;;;;;58.33;28.70;;;;;;;0.31;100.00;95422.56;1028148;28;20486;-73
2021/01/02 02:33:19;;;;;;;59.90;27.95;;;;;;;0.36;100.00;95423.00;1032014;28;20018;-73
2021/01/02 02:34:00;;;;;;;56.90;27.23;;;;;;;0.35;100.00;95430.03;1020059;29;20494;-74
2021/01/02 02:34:31;;;;;;;58.15;27.50;;;;;;;0.41;100.00;95423.47;1032058;28;20076;-74
2021/01/02 02:35:05;;;;;;;54.92;27.58;;;;;;;0.48;100.00;95421.19;1036230;28;20422;-74
2021/01/02 02:35:36;;;;;;;60.17;28.67;;;;;;;0.49;100.00;95423.66;1024094;29;20069;-73
2021/01/02 02:36:07;;;;;;;59.83;26.83;;;;;;;0.40;100.00;95420.97;1024161;29;20066;-73
2021/01/02 02:36:38;;;;;;;60.45;28.33;;;;;;;0.37;100.00;95416.84;1024106;29;20364;-74
2021/01/02 02:37:09;;;;;;;55.47;27.65;;;;;;;0.37;100.00;95416.84;1020101;29;20023;-73
2021/01/02 02:37:43;;;;;;;60.83;28.52;;;;;;;0.35;100.00;95414.34;1031918;28;20050;-73
2021/01/02 02:38:16;;;;;;;63.45;30.73;;;;;;;0.37;100.00;95419.47;1032175;28;20015;-73
2021/01/02 02:38:47;;;;;;;58.90;28.27;;;;;;;0.43;100.00;95418.13;1032145;28;20077;-74
2021/01/02 02:39:17;;;;;;;57.88;28.70;;;;;;;0.38;100.00;95423.72;1027980;28;20117;-73
2021/01/02 02:39:48;;;;;;;62.80;29.50;;;;;;;0.36;100.00;95423.00;1020110;29;20016;-73
2021/01/02 02:40:20;;;;;;;57.90;27.42;;;;;;;0.43;100.00;95418.94;1024186;29;20023;-74
2021/01/02 02:40:50;;;;;;;58.72;27.23;;;;;;;0.43;100.00;95416.31;1028147;28;20026;-73
2021/01/02 02:41:26;;;;;;;59.25;27.42;;;;;;;0.40;100.00;95414.00;1020187;29;20027;-74
2021/01/02 02:41:59;;;;;;;58.60;28.05;;;;;;;0.40;100.00;95416.59;1032048;28;20141;-74
2021/01/02 02:42:31;;;;;;;63.58;28.67;;;;;;;0.36;100.00;95410.78;1028079;28;20027;-73
2021/01/02 02:43:02;;;;;;;60.45;28.65;;;;;;;0.32;100.00;95408.56;1028050;28;20019;-73
2021/01/02 02:43:33;;;;;;;58.63;27.73;;;;;;;0.40;100.00;95416.59;1027992;28;20193;-73
2021/01/02 02:44:04;;;;;;;58.85;27.35;;;;;;;0.29;100.00;95411.41;1023986;29;20098;-73
2021/01/02 02:44:37;;;;;;;57.22;27.80;;;;;;;0.39;100.00;95419.34;1024023;29;20023;-73
2021/01/02 02:45:09;;;;;;;57.88;26.83;;;;;;;0.37;100.00;95409.84;1024181;29;20102;-73
2021/01/02 02:45:40;;;;;;;66.60;28.38;;;;;;;0.39;100.00;95414.09;1028134;28;20479;-74
2021/01/02 02:46:12;;;;;;;58.30;27.38;;;;;;;0.43;100.00;95413.72;1024136;29;20019;-73
2021/01/02 02:46:44;;;;;;;59.90;25.95;;;;;;;0.46;100.00;95410.84;1028084;28;20415;-73
2021/01/02 02:47:17;;;;;;;59.72;28.05;;;;;;;0.44;100.00;95404.94;1032140;28;20018;-73
2021/01/02 02:47:49;;;;;;;56.00;26.85;;;;;;;0.47;100.00;95404.69;1032000;28;20018;-73
2021/01/02 02:48:20;;;;;;;55.35;25.83;;;;;;;0.43;100.00;95408.47;1028163;28;20019;-73